createdAt,value
2022-12-22T00:00:40.870Z,10.90
2022-12-22T00:03:33.695Z,9.15
2022-12-22T00:06:22.992Z,7.13
2022-12-22T00:09:11.627Z,7.75
2022-12-22T00:12:01.254Z,8.23
2022-12-22T00:14:51.410Z,8.73
2022-12-22T00:17:48.040Z,7.97
2022-12-22T00:20:39.691Z,8.05
2022-12-22T00:23:30.294Z,7.10
2022-12-22T00:26:19.565Z,5.80
2022-12-22T00:29:08.678Z,5.13
2022-12-22T00:31:57.424Z,6.05
2022-12-22T00:34:47.452Z,6.25
2022-12-22T00:37:37.610Z,5.35
2022-12-22T00:40:40.899Z,5.68
2022-12-22T00:43:30.840Z,6.30
2022-12-22T00:46:21.850Z,5.85
2022-12-22T00:49:11.003Z,5.55
2022-12-22T00:52:03.358Z,5.78
2022-12-22T00:54:52.774Z,5.07
2022-12-22T00:57:44.670Z,5.40
2022-12-22T01:00:38.906Z,5.45
2022-12-22T01:03:29.114Z,4.53
2022-12-22T01:06:21.519Z,4.35
2022-12-22T01:09:10.645Z,5.32
2022-12-22T01:11:59.522Z,5.22
2022-12-22T01:14:49.148Z,5.13
2022-12-22T01:17:37.646Z,6.10
2022-12-22T01:20:28.097Z,5.85
2022-12-22T01:23:18.404Z,5.88
2022-12-22T01:26:07.042Z,5.80
2022-12-22T01:28:55.927Z,5.60
2022-12-22T01:31:49.710Z,6.65
2022-12-22T01:34:38.089Z,7.15
2022-12-22T01:37:27.497Z,5.95
2022-12-22T01:40:16.350Z,6.00
2022-12-22T01:43:04.875Z,6.65
2022-12-22T01:45:56.402Z,5.43
2022-12-22T01:48:49.894Z,7.35
2022-12-22T01:51:47.401Z,7.93
2022-12-22T01:54:36.157Z,7.63
2022-12-22T01:57:27.406Z,5.45
2022-12-22T02:00:16.036Z,4.97
2022-12-22T02:03:04.677Z,7.20
2022-12-22T02:05:55.841Z,11.75
2022-12-22T02:08:47.911Z,6.50
2022-12-22T02:12:07.065Z,5.97
2022-12-22T02:15:06.570Z,7.20
2022-12-22T02:18:07.351Z,6.57
2022-12-22T02:21:03.139Z,7.57
2022-12-22T02:23:57.461Z,6.80
2022-12-22T02:26:53.521Z,6.78
2022-12-22T02:29:48.344Z,7.82
2022-12-22T02:32:37.234Z,7.60
2022-12-22T02:35:36.806Z,6.07
2022-12-22T02:38:38.931Z,7.43
2022-12-22T02:41:39.104Z,7.35
2022-12-22T02:45:24.365Z,6.47
2022-12-22T02:48:27.043Z,8.52
2022-12-22T02:51:25.899Z,8.07
2022-12-22T02:54:16.607Z,7.50
2022-12-22T02:57:07.270Z,10.73
2022-12-22T02:59:56.365Z,7.15
2022-12-22T03:02:47.638Z,6.95
2022-12-22T03:05:36.765Z,8.02
2022-12-22T03:08:25.485Z,8.45
2022-12-22T03:11:14.151Z,8.52
2022-12-22T03:14:03.360Z,11.73
2022-12-22T03:16:52.009Z,9.98
2022-12-22T03:19:40.418Z,8.98
2022-12-22T03:22:28.908Z,9.82
2022-12-22T03:25:17.613Z,9.20
2022-12-22T03:27:47.940Z,8.95
2022-12-22T03:30:18.723Z,8.50
2022-12-22T03:32:49.058Z,7.95
2022-12-22T03:35:19.332Z,8.93
2022-12-22T03:37:52.610Z,8.18
2022-12-22T03:40:23.159Z,7.88
2022-12-22T03:43:12.381Z,7.78
2022-12-22T03:46:00.873Z,7.45
2022-12-22T03:48:31.527Z,7.53
2022-12-22T03:51:02.362Z,8.55
2022-12-22T03:53:32.927Z,7.60
2022-12-22T03:56:07.800Z,6.63
2022-12-22T03:58:38.826Z,6.78
2022-12-22T04:01:10.257Z,7.95
2022-12-22T04:03:40.618Z,6.95
2022-12-22T04:06:11.258Z,6.40
2022-12-22T04:08:41.643Z,6.50
2022-12-22T04:11:34.717Z,7.15
2022-12-22T04:14:05.678Z,6.60
2022-12-22T04:16:36.652Z,7.22
2022-12-22T04:19:11.100Z,7.18
2022-12-22T04:21:42.155Z,6.80
2022-12-22T04:24:14.669Z,5.97
2022-12-22T04:26:48.076Z,5.30
2022-12-22T04:29:18.617Z,5.75
2022-12-22T04:31:49.245Z,6.40
2022-12-22T04:34:19.780Z,6.20
2022-12-22T04:36:51.089Z,13.00
2022-12-22T04:39:22.093Z,9.07
2022-12-22T04:41:52.485Z,6.45
2022-12-22T04:44:23.315Z,5.75
2022-12-22T04:46:54.142Z,5.88
2022-12-22T04:49:25.030Z,7.10
2022-12-22T04:51:57.911Z,5.45
2022-12-22T04:54:31.287Z,6.80
2022-12-22T04:57:02.316Z,6.13
2022-12-22T04:59:33.487Z,7.40
2022-12-22T05:02:04.055Z,7.63
2022-12-22T05:04:35.333Z,7.38
2022-12-22T05:07:06.033Z,10.57
2022-12-22T05:09:37.275Z,10.00
2022-12-22T05:12:28.942Z,7.72
2022-12-22T05:14:59.350Z,7.68
2022-12-22T05:17:30.060Z,6.28
2022-12-22T05:20:00.704Z,6.53
2022-12-22T05:22:31.238Z,6.53
2022-12-22T05:25:02.472Z,6.57
2022-12-22T05:27:33.172Z,7.07
2022-12-22T05:30:04.228Z,6.65
2022-12-22T05:32:35.326Z,7.47
2022-12-22T05:35:06.439Z,9.32
2022-12-22T05:37:39.510Z,8.07
2022-12-22T05:40:11.478Z,7.78
2022-12-22T05:42:42.228Z,7.40
2022-12-22T05:45:20.593Z,7.40
2022-12-22T05:47:53.003Z,7.22
2022-12-22T05:50:25.788Z,6.55
2022-12-22T05:53:08.260Z,7.65
2022-12-22T05:55:39.490Z,8.40
2022-12-22T05:58:11.869Z,7.60
2022-12-22T06:00:42.271Z,6.70
2022-12-22T06:03:13.228Z,8.63
2022-12-22T06:05:44.109Z,12.95
2022-12-22T06:08:14.787Z,11.57
2022-12-22T06:10:45.522Z,11.55
2022-12-22T06:13:16.557Z,9.77
2022-12-22T06:15:58.549Z,9.52
2022-12-22T06:18:29.355Z,9.82
2022-12-22T06:21:00.204Z,8.70
2022-12-22T06:23:30.910Z,10.18
2022-12-22T06:26:04.620Z,8.63
2022-12-22T06:28:35.452Z,8.80
2022-12-22T06:31:07.267Z,7.50
2022-12-22T06:33:38.740Z,6.80
2022-12-22T06:36:10.452Z,4.22
2022-12-22T06:38:41.449Z,4.82
2022-12-22T06:41:12.841Z,4.40
2022-12-22T06:43:43.896Z,7.70
2022-12-22T06:46:14.821Z,2.90
2022-12-22T06:48:48.540Z,3.88
2022-12-22T06:51:19.980Z,16.95
2022-12-22T06:53:56.656Z,7.10
2022-12-22T06:56:27.383Z,7.38
2022-12-22T06:58:57.796Z,10.82
2022-12-22T07:01:28.702Z,6.97
2022-12-22T07:03:59.587Z,7.35
2022-12-22T07:06:30.532Z,6.88
2022-12-22T07:09:01.265Z,8.18
2022-12-22T07:11:34.643Z,7.63
2022-12-22T07:14:05.390Z,8.13
2022-12-22T07:16:36.287Z,8.93
2022-12-22T07:19:06.777Z,7.55
2022-12-22T07:21:37.696Z,9.32
2022-12-22T07:24:08.846Z,8.88
2022-12-22T07:26:39.277Z,9.23
2022-12-22T07:29:10.823Z,7.80
2022-12-22T07:31:41.325Z,7.45
2022-12-22T07:34:12.293Z,6.90
2022-12-22T07:36:43.050Z,6.60
2022-12-22T07:39:19.479Z,10.20
2022-12-22T07:42:10.304Z,6.75
2022-12-22T07:44:41.291Z,6.65
2022-12-22T07:47:14.974Z,4.50
2022-12-22T07:50:15.145Z,3.92
2022-12-22T07:52:45.531Z,5.70
2022-12-22T07:55:16.176Z,3.58
2022-12-22T07:57:47.632Z,3.60
2022-12-22T08:00:18.573Z,3.90
2022-12-22T08:02:53.331Z,3.95
2022-12-22T08:05:26.025Z,5.22
2022-12-22T08:07:56.861Z,4.80
2022-12-22T08:10:30.471Z,4.60
2022-12-22T08:13:04.757Z,4.90
2022-12-22T08:15:36.050Z,5.00
2022-12-22T08:18:07.152Z,5.38
2022-12-22T08:20:37.807Z,4.63
2022-12-22T08:23:08.453Z,5.53
2022-12-22T08:25:39.202Z,5.22
2022-12-22T08:28:09.985Z,4.60
2022-12-22T08:30:41.172Z,4.90
2022-12-22T08:33:11.908Z,6.15
2022-12-22T08:35:42.761Z,6.15
2022-12-22T08:38:15.901Z,4.05
2022-12-22T08:40:46.997Z,5.20
2022-12-22T08:43:18.624Z,4.82
2022-12-22T08:45:49.186Z,4.43
2022-12-22T08:48:20.211Z,5.50
2022-12-22T08:50:50.923Z,5.70
2022-12-22T08:53:53.904Z,5.90
2022-12-22T08:56:13.652Z,4.13
2022-12-22T08:58:44.207Z,4.82
2022-12-22T09:01:24.131Z,6.72
2022-12-22T09:03:56.225Z,6.00
2022-12-22T09:06:28.438Z,6.35
2022-12-22T09:09:03.350Z,5.35
2022-12-22T09:11:37.795Z,7.78
2022-12-22T09:14:09.524Z,6.07
2022-12-22T09:16:40.656Z,7.60
2022-12-22T09:19:11.079Z,6.57
2022-12-22T09:21:41.745Z,7.25
2022-12-22T09:24:13.009Z,7.18
2022-12-22T09:26:43.936Z,6.47
2022-12-22T09:29:16.272Z,6.70
2022-12-22T09:31:48.763Z,7.28
2022-12-22T09:34:20.840Z,8.48
2022-12-22T09:36:51.217Z,10.73
2022-12-22T09:39:26.940Z,12.38
2022-12-22T09:42:00.333Z,13.00
2022-12-22T09:44:45.839Z,10.23
2022-12-22T09:47:51.776Z,10.50
2022-12-22T09:50:26.203Z,10.30
2022-12-22T09:53:04.400Z,11.93
2022-12-22T09:55:44.982Z,13.52
2022-12-22T09:58:41.210Z,11.85
2022-12-22T10:01:32.447Z,13.07
2022-12-22T10:04:10.044Z,15.88
2022-12-22T10:06:58.321Z,15.25
2022-12-22T10:09:50.813Z,15.20
2022-12-22T10:12:25.927Z,12.73
2022-12-22T10:14:57.031Z,18.30
2022-12-22T10:17:35.586Z,13.35
2022-12-22T10:20:26.199Z,32.45
2022-12-22T10:23:01.805Z,14.63
2022-12-22T10:28:45.255Z,23.08
2022-12-22T10:31:31.826Z,14.68
2022-12-22T10:34:18.033Z,14.63
2022-12-22T10:36:50.501Z,15.10
2022-12-22T10:39:28.658Z,15.75
2022-12-22T10:42:14.730Z,16.52
2022-12-22T10:44:48.140Z,16.48
2022-12-22T10:47:22.590Z,16.98
2022-12-22T10:52:32.487Z,14.38
2022-12-22T10:55:21.475Z,15.65
2022-12-22T10:57:52.600Z,16.15
2022-12-22T11:00:31.721Z,14.20
2022-12-22T11:03:04.633Z,13.68
2022-12-22T11:05:36.134Z,11.18
2022-12-22T11:08:21.015Z,13.25
2022-12-22T11:11:05.146Z,16.35
2022-12-22T11:13:59.841Z,15.20
2022-12-22T11:16:54.269Z,15.43
2022-12-22T11:19:43.678Z,15.23
2022-12-22T11:22:36.561Z,17.00
2022-12-22T11:25:20.641Z,18.63
2022-12-22T11:28:05.469Z,18.80
2022-12-22T11:30:54.664Z,17.25
2022-12-22T11:33:50.115Z,21.80
2022-12-22T11:36:21.428Z,22.45
2022-12-22T11:38:58.615Z,18.23
2022-12-22T11:41:44.129Z,21.70
2022-12-22T11:44:28.794Z,18.92
2022-12-22T11:47:37.227Z,19.27
2022-12-22T11:51:01.888Z,11.90
2022-12-22T11:53:29.173Z,17.92
2022-12-22T11:56:15.116Z,16.23
2022-12-22T11:59:06.528Z,18.50
2022-12-22T12:01:37.736Z,20.65
2022-12-22T12:04:38.269Z,19.75
2022-12-22T12:07:42.075Z,17.40
2022-12-22T12:10:19.552Z,22.60
2022-12-22T12:13:08.167Z,21.85
2022-12-22T12:16:32.828Z,15.38
2022-12-22T12:19:27.073Z,14.15
2022-12-22T12:22:01.457Z,12.18
2022-12-22T12:24:52.482Z,13.20
2022-12-22T12:27:44.245Z,13.32
2022-12-22T12:30:37.856Z,11.90
2022-12-22T12:33:41.387Z,12.40
2022-12-22T12:36:33.410Z,12.25
2022-12-22T12:39:35.618Z,12.55
2022-12-22T12:42:45.410Z,13.00
2022-12-22T12:45:46.667Z,19.77
2022-12-22T12:48:24.803Z,24.08
2022-12-22T12:50:56.627Z,17.88
2022-12-22T12:53:31.483Z,15.48
2022-12-22T12:56:04.900Z,17.15
2022-12-22T12:58:41.433Z,18.83
2022-12-22T13:01:33.345Z,19.30
2022-12-22T13:04:11.600Z,19.75
2022-12-22T13:06:50.173Z,18.30
2022-12-22T13:12:35.958Z,15.90
2022-12-22T13:15:26.547Z,15.43
2022-12-22T13:18:00.313Z,15.10
2022-12-22T13:20:36.455Z,16.27
2022-12-22T13:23:14.790Z,16.92
2022-12-22T13:25:59.757Z,15.73
2022-12-22T13:28:31.148Z,14.00
2022-12-22T13:31:04.771Z,14.75
2022-12-22T13:33:42.137Z,13.40
2022-12-22T13:36:29.118Z,16.83
2022-12-22T13:39:04.292Z,21.90
2022-12-22T13:41:35.571Z,24.42
2022-12-22T13:44:11.418Z,28.80
2022-12-22T13:46:43.026Z,28.67
2022-12-22T13:49:43.301Z,27.13
2022-12-22T13:52:14.989Z,21.92
2022-12-22T13:54:47.368Z,20.98
2022-12-22T13:57:23.271Z,21.13
2022-12-22T13:59:56.012Z,20.05
2022-12-22T14:02:27.647Z,18.55
2022-12-22T14:05:14.498Z,19.65
2022-12-22T14:08:06.639Z,20.38
2022-12-22T14:10:44.193Z,20.15
2022-12-22T14:13:19.896Z,19.83
2022-12-22T14:16:03.665Z,19.42
2022-12-22T14:18:35.472Z,20.05
2022-12-22T14:21:10.104Z,19.63
2022-12-22T14:23:42.477Z,18.65
2022-12-22T14:26:21.026Z,17.13
2022-12-22T14:28:56.165Z,16.80
2022-12-22T14:31:26.820Z,14.77
2022-12-22T14:34:06.157Z,13.00
2022-12-22T14:36:41.041Z,13.02
2022-12-22T14:39:12.724Z,12.00
2022-12-22T14:42:06.798Z,14.05
2022-12-22T14:44:45.069Z,13.38
2022-12-22T14:47:18.296Z,11.70
2022-12-22T14:49:54.853Z,11.35
2022-12-22T14:52:39.624Z,13.98
2022-12-22T14:55:23.711Z,12.73
2022-12-22T14:58:00.318Z,14.43
2022-12-22T15:00:38.746Z,13.48
2022-12-22T15:03:40.010Z,12.20
2022-12-22T15:06:24.615Z,11.32
2022-12-22T15:09:12.735Z,12.95
2022-12-22T15:11:44.916Z,10.43
2022-12-22T15:14:21.166Z,9.98
2022-12-22T15:16:52.485Z,9.15
2022-12-22T15:19:25.725Z,8.98
2022-12-22T15:21:56.543Z,8.27
2022-12-22T15:24:27.481Z,8.23
2022-12-22T15:26:57.840Z,8.90
2022-12-22T15:29:29.023Z,9.13
2022-12-22T15:31:59.678Z,9.02
2022-12-22T15:34:33.148Z,8.95
2022-12-22T15:37:04.128Z,10.85
2022-12-22T15:39:34.494Z,9.30
2022-12-22T15:42:05.892Z,8.57
2022-12-22T15:44:39.158Z,8.57
2022-12-22T15:47:12.035Z,8.93
2022-12-22T15:49:45.158Z,8.68
2022-12-22T15:52:15.883Z,9.07
2022-12-22T15:54:47.346Z,8.32
2022-12-22T15:57:18.933Z,8.45
2022-12-22T15:59:49.569Z,6.97
2022-12-22T16:02:20.424Z,5.63
2022-12-22T16:04:51.208Z,5.82
2022-12-22T16:07:24.352Z,5.28
2022-12-22T16:09:55.015Z,4.63
2022-12-22T16:12:25.626Z,4.82
2022-12-22T16:14:58.018Z,4.85
2022-12-22T16:17:30.025Z,5.10
2022-12-22T16:20:01.980Z,4.82
2022-12-22T16:22:44.141Z,3.95
2022-12-22T16:25:21.383Z,4.25
2022-12-22T16:27:54.580Z,4.25
2022-12-22T16:30:29.423Z,3.28
2022-12-22T16:33:00.252Z,3.95
2022-12-22T16:35:33.904Z,3.78
2022-12-22T16:38:04.223Z,4.38
2022-12-22T16:40:38.113Z,4.88
2022-12-22T16:46:22.137Z,4.65
2022-12-22T16:48:55.355Z,6.03
2022-12-22T16:51:34.772Z,5.25
2022-12-22T16:54:05.592Z,5.15
2022-12-22T16:56:37.000Z,5.63
2022-12-22T16:59:07.733Z,12.15
2022-12-22T17:01:48.297Z,7.85
2022-12-22T17:04:23.321Z,5.28
2022-12-22T17:06:54.556Z,6.00
2022-12-22T17:09:49.801Z,5.10
2022-12-22T17:12:30.215Z,4.88
2022-12-22T17:15:01.167Z,4.70
2022-12-22T17:17:40.248Z,4.65
2022-12-22T17:20:24.029Z,4.68
2022-12-22T17:23:00.719Z,4.38
2022-12-22T17:25:32.574Z,3.60
2022-12-22T17:28:03.736Z,3.50
2022-12-22T17:30:34.404Z,3.60
2022-12-22T17:33:05.490Z,3.20
2022-12-22T17:35:36.369Z,3.58
2022-12-22T17:38:06.799Z,3.40
2022-12-22T17:40:38.133Z,3.38
2022-12-22T17:43:11.059Z,3.47
2022-12-22T17:45:42.006Z,3.53
2022-12-22T17:48:13.319Z,3.47
2022-12-22T17:50:45.303Z,3.50
2022-12-22T17:53:21.056Z,3.80
2022-12-22T17:56:09.336Z,3.53
2022-12-22T17:58:40.124Z,3.60
2022-12-22T18:01:32.854Z,4.00
2022-12-22T18:04:03.653Z,3.90
2022-12-22T18:06:35.931Z,3.95
2022-12-22T18:09:08.306Z,3.70
2022-12-22T18:11:45.492Z,3.70
2022-12-22T18:14:17.686Z,3.60
2022-12-22T18:16:48.535Z,3.50
2022-12-22T18:19:19.499Z,4.03
2022-12-22T18:21:49.806Z,3.33
2022-12-22T18:24:20.798Z,3.38
2022-12-22T18:26:51.299Z,3.63
2022-12-22T18:29:25.240Z,4.00
2022-12-22T18:31:55.927Z,3.92
2022-12-22T18:34:27.335Z,3.50
2022-12-22T18:37:13.267Z,4.15
2022-12-22T18:39:45.676Z,4.28
2022-12-22T18:42:22.700Z,3.78
2022-12-22T18:44:53.265Z,3.95
2022-12-22T18:47:24.580Z,4.20
2022-12-22T18:49:55.315Z,3.97
2022-12-22T18:52:26.673Z,3.90
2022-12-22T18:54:57.195Z,4.85
2022-12-22T18:57:28.347Z,4.07
2022-12-22T18:59:58.873Z,4.15
2022-12-22T19:02:30.602Z,4.10
2022-12-22T19:05:01.234Z,4.28
2022-12-22T19:07:32.085Z,4.45
2022-12-22T19:10:03.312Z,4.35
2022-12-22T19:12:34.071Z,4.63
2022-12-22T19:15:07.737Z,4.32
2022-12-22T19:17:41.453Z,3.90
2022-12-22T19:20:23.162Z,4.22
2022-12-22T19:22:54.112Z,4.53
2022-12-22T19:25:28.839Z,4.43
2022-12-22T19:28:20.117Z,4.65
2022-12-22T19:30:50.968Z,4.38
2022-12-22T19:33:33.305Z,4.70
2022-12-22T19:36:05.313Z,3.88
2022-12-22T19:38:38.134Z,4.90
2022-12-22T19:41:16.437Z,5.05
2022-12-22T19:43:47.358Z,5.50
2022-12-22T19:46:17.939Z,4.65
2022-12-22T19:48:48.532Z,4.80
2022-12-22T19:51:19.415Z,5.05
2022-12-22T19:53:50.454Z,5.07
2022-12-22T19:56:27.504Z,5.18
2022-12-22T19:58:58.172Z,5.68
2022-12-22T20:01:37.498Z,4.88
2022-12-22T20:04:14.252Z,4.93
2022-12-22T20:06:44.741Z,6.10
2022-12-22T20:09:15.340Z,4.47
2022-12-22T20:11:46.609Z,5.97
2022-12-22T20:14:19.034Z,5.53
2022-12-22T20:16:50.021Z,5.40
2022-12-22T20:19:20.580Z,4.25
2022-12-22T20:21:51.174Z,5.53
2022-12-22T20:24:23.573Z,5.07
2022-12-22T20:26:55.026Z,5.18
2022-12-22T20:29:26.499Z,5.97
2022-12-22T20:31:56.878Z,5.63
2022-12-22T20:34:28.485Z,5.00
2022-12-22T20:37:01.069Z,5.55
2022-12-22T20:39:32.016Z,5.80
2022-12-22T20:42:02.573Z,5.55
2022-12-22T20:44:33.568Z,6.07
2022-12-22T20:47:04.432Z,6.45
2022-12-22T20:49:35.574Z,5.85
2022-12-22T20:52:06.906Z,5.75
2022-12-22T20:54:37.759Z,6.00
2022-12-22T20:57:14.482Z,6.75
2022-12-22T20:59:55.761Z,6.00
2022-12-22T21:02:31.712Z,6.70
2022-12-22T21:05:02.590Z,5.68
2022-12-22T21:07:33.360Z,5.57
2022-12-22T21:10:06.924Z,5.93
2022-12-22T21:12:38.553Z,5.68
2022-12-22T21:15:10.007Z,5.95
2022-12-22T21:17:55.952Z,6.05
2022-12-22T21:20:30.880Z,5.53
2022-12-22T21:23:01.979Z,6.00
2022-12-22T21:25:32.366Z,5.82
2022-12-22T21:28:03.911Z,5.65
2022-12-22T21:30:34.392Z,5.00
2022-12-22T21:33:05.140Z,5.40
2022-12-22T21:35:37.379Z,5.90
2022-12-22T21:38:08.163Z,5.75
2022-12-22T21:40:38.830Z,5.72
2022-12-22T21:43:11.874Z,6.40
2022-12-22T21:45:43.060Z,6.10
2022-12-22T21:48:22.519Z,5.72
2022-12-22T21:50:56.858Z,6.25
2022-12-22T21:53:27.605Z,6.15
2022-12-22T21:55:58.585Z,6.32
2022-12-22T21:58:29.208Z,7.10
2022-12-22T22:01:00.620Z,8.25
2022-12-22T22:03:33.887Z,7.78
2022-12-22T22:06:05.277Z,8.13
2022-12-22T22:08:35.889Z,8.10
2022-12-22T22:11:18.266Z,7.78
2022-12-22T22:13:50.865Z,8.02
2022-12-22T22:16:22.047Z,8.00
2022-12-22T22:18:58.063Z,9.20
2022-12-22T22:21:28.788Z,8.10
2022-12-22T22:23:59.538Z,8.18
2022-12-22T22:26:31.000Z,8.20
2022-12-22T22:29:01.663Z,8.30
2022-12-22T22:31:32.092Z,8.25
2022-12-22T22:34:02.789Z,8.07
2022-12-22T22:36:33.954Z,7.43
2022-12-22T22:39:04.577Z,7.55
2022-12-22T22:41:42.665Z,7.68
2022-12-22T22:44:14.211Z,7.78
2022-12-22T22:46:44.853Z,7.32
2022-12-22T22:49:16.221Z,6.78
2022-12-22T22:51:49.930Z,7.18
2022-12-22T22:54:20.362Z,7.47
2022-12-22T22:56:50.877Z,7.60
2022-12-22T22:59:22.202Z,7.20
2022-12-22T23:01:53.559Z,7.53
2022-12-22T23:04:28.067Z,7.82
2022-12-22T23:06:59.249Z,7.78
2022-12-22T23:09:29.754Z,8.10
2022-12-22T23:12:00.301Z,7.57
2022-12-22T23:14:31.555Z,7.78
2022-12-22T23:17:02.296Z,7.68
2022-12-22T23:19:34.003Z,8.07
2022-12-22T23:22:04.529Z,7.43
2022-12-22T23:24:34.938Z,8.52
2022-12-22T23:27:05.923Z,8.65
2022-12-22T23:29:38.608Z,8.23
2022-12-22T23:32:08.867Z,7.80
2022-12-22T23:34:39.746Z,8.95
2022-12-22T23:37:17.242Z,8.48
2022-12-22T23:39:50.565Z,9.35
2022-12-22T23:42:21.538Z,8.98
2022-12-22T23:44:52.199Z,8.65
2022-12-22T23:47:22.793Z,8.90
2022-12-22T23:49:56.341Z,8.40
2022-12-22T23:52:27.201Z,9.10
2022-12-22T23:54:57.939Z,8.77
2022-12-22T23:57:28.371Z,9.43
